Time;durP1;ratioP1;P1;durP2;ratioP2;P2;SDS_P1;SDS_P2;PMS_P1;PMS_P2;Temp;Humidity;BMP_temperature;BMP_pressure;BME280_temperature;BME280_humidity;BME280_pressure;Samples;Min_cycle;Max_cycle;Signal;HPM_P1;HPM_P2
2023/09/14 00:00:50;;;;;;;5.45;2.38;;;17.20;99.90;;;;;;5113548;28;20100;-79
2023/09/14 00:03:17;;;;;;;5.30;2.30;;;17.20;99.90;;;;;;5117748;27;20040;-79
2023/09/14 00:05:44;;;;;;;6.50;2.30;;;17.10;99.90;;;;;;5108529;28;20128;-79
2023/09/14 00:08:12;;;;;;;8.82;2.50;;;17.10;99.90;;;;;;5092652;28;20027;-80
2023/09/14 00:10:38;;;;;;;6.22;2.67;;;17.10;99.90;;;;;;5105568;28;20054;-79
2023/09/14 00:13:05;;;;;;;4.60;2.35;;;17.10;99.90;;;;;;5108636;28;20035;-79
2023/09/14 00:15:31;;;;;;;6.40;2.50;;;17.20;99.90;;;;;;5106642;27;20038;-80
2023/09/14 00:17:57;;;;;;;4.55;2.10;;;17.20;99.90;;;;;;5113409;27;20445;-79
2023/09/14 00:20:24;;;;;;;7.10;2.58;;;17.30;99.90;;;;;;5132251;27;20122;-80
2023/09/14 00:22:51;;;;;;;7.63;2.97;;;17.30;99.90;;;;;;5107080;28;20126;-80
2023/09/14 00:25:20;;;;;;;5.75;2.47;;;17.30;99.90;;;;;;5112584;28;20119;-82
2023/09/14 00:27:47;;;;;;;4.18;2.45;;;17.30;99.90;;;;;;5092184;28;20035;-81
2023/09/14 00:30:13;;;;;;;6.97;2.60;;;17.40;99.90;;;;;;5107824;28;20104;-81
2023/09/14 00:32:40;;;;;;;8.75;3.20;;;17.30;99.90;;;;;;5099063;28;20043;-81
2023/09/14 00:35:09;;;;;;;9.52;2.88;;;17.30;99.90;;;;;;5102529;28;20035;-81
2023/09/14 00:37:36;;;;;;;7.82;3.50;;;17.30;99.90;;;;;;5100258;27;20480;-81
2023/09/14 00:40:06;;;;;;;6.63;3.10;;;17.30;99.90;;;;;;5100453;27;20109;-80
2023/09/14 00:42:41;;;;;;;12.60;3.17;;;17.20;99.90;;;;;;5117663;27;20402;-82
2023/09/14 00:45:15;;;;;;;6.03;2.88;;;17.20;99.90;;;;;;5106722;28;20078;-81
2023/09/14 00:48:04;;;;;;;5.35;2.50;;;17.20;99.90;;;;;;5101021;27;20082;-81
2023/09/14 00:50:30;;;;;;;4.05;2.50;;;17.20;99.90;;;;;;5110832;27;20088;-81
2023/09/14 00:53:09;;;;;;;6.72;3.03;;;17.20;99.90;;;;;;5095479;27;20372;-81
2023/09/14 00:55:36;;;;;;;13.38;3.45;;;17.20;99.90;;;;;;5105666;28;20050;-80
2023/09/14 00:58:03;;;;;;;8.27;3.95;;;17.20;99.90;;;;;;5104038;27;20092;-81
2023/09/14 01:00:29;;;;;;;5.03;3.03;;;17.20;99.90;;;;;;5084095;27;20533;-81
2023/09/14 01:02:56;;;;;;;4.43;2.75;;;17.10;99.90;;;;;;5113386;27;20043;-80
2023/09/14 01:05:30;;;;;;;8.48;2.85;;;17.20;99.90;;;;;;5083215;28;20575;-81
2023/09/14 01:07:57;;;;;;;7.40;2.87;;;17.20;99.90;;;;;;5114405;27;20040;-81
2023/09/14 01:10:23;;;;;;;7.30;2.30;;;17.20;99.90;;;;;;5109990;27;20032;-81
2023/09/14 01:12:50;;;;;;;4.78;2.30;;;17.20;99.90;;;;;;5110327;27;20099;-82
2023/09/14 01:15:21;;;;;;;5.20;2.60;;;17.30;99.90;;;;;;5094125;28;20074;-80
2023/09/14 01:17:59;;;;;;;6.25;2.90;;;17.20;99.90;;;;;;5094037;28;20039;-81
2023/09/14 01:20:39;;;;;;;7.65;2.30;;;17.30;99.90;;;;;;5111479;27;20070;-81
2023/09/14 01:23:23;;;;;;;7.53;3.75;;;17.30;99.90;;;;;;5111264;27;20043;-80
2023/09/14 01:25:52;;;;;;;7.53;2.78;;;17.20;99.90;;;;;;5119998;27;20039;-81
2023/09/14 01:28:18;;;;;;;4.75;2.22;;;17.20;99.90;;;;;;5112363;27;20112;-81
2023/09/14 01:30:44;;;;;;;3.20;2.15;;;17.30;99.90;;;;;;5095451;27;20040;-81
2023/09/14 01:33:12;;;;;;;6.32;2.85;;;17.30;99.90;;;;;;5101857;27;20036;-80
2023/09/14 01:35:49;;;;;;;4.43;2.90;;;17.30;99.90;;;;;;5127595;27;20437;-80
2023/09/14 01:38:15;;;;;;;8.45;3.03;;;17.30;99.90;;;;;;5093789;28;20039;-81
2023/09/14 01:40:43;;;;;;;6.28;2.45;;;17.30;99.90;;;;;;5084187;27;20058;-81
2023/09/14 01:43:10;;;;;;;4.50;2.70;;;17.30;99.90;;;;;;5102062;27;20136;-80
2023/09/14 01:45:36;;;;;;;5.25;2.30;;;17.30;99.90;;;;;;5091293;28;20069;-82
2023/09/14 01:48:01;;;;;;;2.83;2.08;;;17.30;99.90;;;;;;5081497;27;20067;-80
2023/09/14 01:50:27;;;;;;;6.70;2.15;;;17.30;99.90;;;;;;5107275;27;20062;-80
2023/09/14 01:52:54;;;;;;;4.43;2.22;;;17.30;99.90;;;;;;5072977;28;20039;-82
2023/09/14 01:55:20;;;;;;;3.63;2.35;;;17.40;99.90;;;;;;5148091;27;20053;-81
2023/09/14 01:57:46;;;;;;;3.90;2.33;;;17.30;99.90;;;;;;5126683;27;20066;-81
2023/09/14 02:00:12;;;;;;;7.35;2.55;;;17.30;99.90;;;;;;5108766;27;20035;-82
2023/09/14 02:02:38;;;;;;;4.88;2.30;;;17.30;99.90;;;;;;5079230;27;20070;-83
2023/09/14 02:05:04;;;;;;;3.17;2.00;;;17.30;99.90;;;;;;5117462;27;20045;-83
2023/09/14 02:07:30;;;;;;;5.45;2.03;;;17.30;99.90;;;;;;5093059;27;20027;-82
2023/09/14 02:09:56;;;;;;;6.97;2.40;;;17.30;99.90;;;;;;5128534;27;20538;-83
2023/09/14 02:12:21;;;;;;;6.68;2.55;;;17.30;99.90;;;;;;5080842;27;20039;-81
2023/09/14 02:14:47;;;;;;;4.53;2.00;;;17.30;99.90;;;;;;5125189;27;20038;-82
2023/09/14 02:17:13;;;;;;;3.92;2.10;;;17.30;99.90;;;;;;5129410;27;20518;-81
2023/09/14 02:19:39;;;;;;;5.43;2.33;;;17.30;99.90;;;;;;5099657;27;20043;-81
2023/09/14 02:22:05;;;;;;;3.13;1.88;;;17.30;99.90;;;;;;5112258;27;20087;-81
2023/09/14 02:24:33;;;;;;;3.58;1.95;;;17.30;99.90;;;;;;5111694;27;20485;-81
2023/09/14 02:26:59;;;;;;;5.22;2.20;;;16.80;99.90;;;;;;5107216;27;20360;-82
2023/09/14 02:29:25;;;;;;;3.30;2.08;;;17.30;99.90;;;;;;5096411;27;20038;-82
2023/09/14 02:31:50;;;;;;;4.82;1.90;;;17.30;99.90;;;;;;5100041;27;20035;-81
2023/09/14 02:34:16;;;;;;;4.60;1.90;;;17.30;99.90;;;;;;5095695;27;20041;-83
2023/09/14 02:36:42;;;;;;;3.08;1.73;;;17.30;99.90;;;;;;5115474;27;20080;-82
2023/09/14 02:39:09;;;;;;;4.60;1.80;;;17.30;99.90;;;;;;5094569;27;20469;-83
2023/09/14 02:41:35;;;;;;;4.75;2.25;;;17.30;99.90;;;;;;5099179;27;20057;-83
2023/09/14 02:44:00;;;;;;;3.22;1.77;;;17.20;99.90;;;;;;5107843;27;20035;-82
2023/09/14 02:46:26;;;;;;;4.90;1.90;;;17.20;99.90;;;;;;5103212;27;20490;-83
2023/09/14 02:48:52;;;;;;;5.68;1.70;;;17.30;99.90;;;;;;5088849;27;20035;-83
2023/09/14 02:51:17;;;;;;;7.03;2.25;;;17.20;99.90;;;;;;5104345;27;20436;-82
2023/09/14 02:53:44;;;;;;;4.53;1.77;;;17.20;99.90;;;;;;5114084;27;20036;-81
2023/09/14 02:56:10;;;;;;;4.88;2.17;;;17.20;99.90;;;;;;5121068;27;20055;-82
2023/09/14 02:58:36;;;;;;;2.65;1.52;;;17.10;99.90;;;;;;5076969;27;20054;-82
2023/09/14 03:01:09;;;;;;;5.35;2.03;;;17.00;99.90;;;;;;5079007;27;20035;-82
2023/09/14 03:03:39;;;;;;;3.67;1.65;;;17.00;99.90;;;;;;5112807;27;20096;-82
2023/09/14 03:06:05;;;;;;;4.68;1.70;;;17.00;99.90;;;;;;5120904;27;20531;-82
2023/09/14 03:08:32;;;;;;;3.30;1.48;;;16.90;99.90;;;;;;5112419;27;20042;-81
2023/09/14 03:11:00;;;;;;;3.65;1.73;;;16.90;99.90;;;;;;5117148;27;20033;-81
2023/09/14 03:13:26;;;;;;;5.38;1.70;;;16.80;99.90;;;;;;5111036;27;20070;-81
2023/09/14 03:15:59;;;;;;;3.03;1.77;;;16.80;99.90;;;;;;5127307;27;20074;-81
2023/09/14 03:18:25;;;;;;;4.32;1.60;;;16.70;99.90;;;;;;5121294;27;20572;-81
2023/09/14 03:20:55;;;;;;;4.25;1.77;;;16.70;99.90;;;;;;5123431;27;20458;-80
2023/09/14 03:23:22;;;;;;;3.22;1.60;;;16.60;99.90;;;;;;5099247;27;20077;-81
2023/09/14 03:25:48;;;;;;;6.25;1.80;;;16.60;99.90;;;;;;5128686;27;20042;-80
2023/09/14 03:28:15;;;;;;;4.20;1.90;;;16.70;99.90;;;;;;5117992;27;20478;-80
2023/09/14 03:30:40;;;;;;;6.22;2.08;;;16.60;99.90;;;;;;5101397;27;20043;-81
2023/09/14 03:33:06;;;;;;;5.60;2.42;;;16.60;99.90;;;;;;5127487;27;20178;-81
2023/09/14 03:35:32;;;;;;;5.20;2.25;;;16.60;99.90;;;;;;5110076;27;20039;-81
2023/09/14 03:37:58;;;;;;;9.57;2.47;;;16.60;99.90;;;;;;5124343;27;20043;-81
2023/09/14 03:40:24;;;;;;;3.97;2.10;;;16.50;99.90;;;;;;5111025;28;20092;-81
2023/09/14 03:42:50;;;;;;;4.25;2.20;;;16.60;99.90;;;;;;5115738;27;20398;-80
2023/09/14 03:45:16;;;;;;;4.70;2.42;;;16.50;99.90;;;;;;5090423;28;20066;-81
2023/09/14 03:47:41;;;;;;;3.38;2.10;;;16.50;99.90;;;;;;5118881;27;20070;-82
2023/09/14 03:50:09;;;;;;;3.08;2.20;;;16.40;99.90;;;;;;5092225;27;20035;-82
2023/09/14 03:52:35;;;;;;;3.13;1.90;;;16.40;99.90;;;;;;5121872;27;20041;-82
2023/09/14 03:55:04;;;;;;;2.45;1.90;;;16.40;99.90;;;;;;5105349;27;20042;-81
2023/09/14 03:57:30;;;;;;;3.78;2.17;;;16.30;99.90;;;;;;5112851;27;20096;-82
2023/09/14 03:59:56;;;;;;;5.05;2.38;;;16.30;99.90;;;;;;5102529;27;20046;-81
2023/09/14 04:02:23;;;;;;;3.35;2.10;;;16.30;99.90;;;;;;5107329;27;20041;-81
2023/09/14 04:04:50;;;;;;;3.92;2.00;;;16.40;99.90;;;;;;5114121;27;20038;-82
2023/09/14 04:07:16;;;;;;;7.88;2.13;;;16.30;99.90;;;;;;5125656;27;20737;-84
2023/09/14 04:09:42;;;;;;;3.47;1.90;;;16.30;99.90;;;;;;5107130;27;20038;-82
2023/09/14 04:12:08;;;;;;;6.47;1.92;;;16.30;99.90;;;;;;5119665;28;20076;-82
2023/09/14 04:14:34;;;;;;;3.92;2.13;;;16.20;99.90;;;;;;5111400;27;20054;-81
2023/09/14 04:17:01;;;;;;;5.60;1.77;;;16.20;99.90;;;;;;5107794;27;20073;-81
2023/09/14 04:19:30;;;;;;;5.85;2.22;;;16.10;99.90;;;;;;5112805;27;20085;-82
2023/09/14 04:21:57;;;;;;;4.68;2.20;;;16.20;99.90;;;;;;5120720;27;20042;-82
2023/09/14 04:24:22;;;;;;;5.32;2.22;;;16.20;99.90;;;;;;5101242;27;20035;-82
2023/09/14 04:26:48;;;;;;;5.53;2.13;;;16.20;99.90;;;;;;5113107;27;20099;-82
2023/09/14 04:29:14;;;;;;;5.78;2.13;;;16.20;99.90;;;;;;5098988;27;20075;-83
2023/09/14 04:31:43;;;;;;;5.28;2.60;;;16.20;99.90;;;;;;5116382;27;20031;-82
2023/09/14 04:34:10;;;;;;;3.70;2.05;;;16.10;99.90;;;;;;5128630;27;20042;-83
2023/09/14 04:36:37;;;;;;;6.15;2.30;;;16.20;99.90;;;;;;5121194;27;20031;-83
2023/09/14 04:39:03;;;;;;;5.65;2.20;;;16.10;99.90;;;;;;5123767;27;20043;-83
2023/09/14 04:41:33;;;;;;;5.90;2.08;;;16.20;99.90;;;;;;5094570;27;20043;-81
2023/09/14 04:43:59;;;;;;;4.93;2.22;;;16.10;99.90;;;;;;5092115;27;20069;-82
2023/09/14 04:46:25;;;;;;;4.53;2.22;;;16.20;99.90;;;;;;5116356;27;20190;-81
2023/09/14 04:48:51;;;;;;;5.05;1.92;;;16.20;99.90;;;;;;5107670;27;20042;-81
2023/09/14 04:51:17;;;;;;;7.30;2.28;;;16.20;99.90;;;;;;5125363;27;20035;-82
2023/09/14 04:53:42;;;;;;;3.65;2.22;;;16.10;99.90;;;;;;5115084;27;20035;-80
2023/09/14 04:56:08;;;;;;;4.15;2.03;;;16.00;99.90;;;;;;5100580;27;20398;-81
2023/09/14 04:58:34;;;;;;;4.32;1.95;;;16.10;99.90;;;;;;5107660;27;20687;-82
2023/09/14 05:01:00;;;;;;;5.88;2.40;;;16.10;99.90;;;;;;5090091;27;20047;-82
2023/09/14 05:03:25;;;;;;;9.32;2.60;;;16.10;99.90;;;;;;5114607;27;20058;-82
2023/09/14 05:05:55;;;;;;;5.55;2.40;;;16.10;99.90;;;;;;5096023;27;20069;-82
2023/09/14 05:08:23;;;;;;;4.20;2.10;;;16.20;99.90;;;;;;5088691;27;20188;-81
2023/09/14 05:10:53;;;;;;;5.53;2.38;;;16.20;99.90;;;;;;5109644;27;20072;-82
2023/09/14 05:13:20;;;;;;;5.45;2.40;;;16.20;99.90;;;;;;5081287;27;20043;-82
2023/09/14 05:15:46;;;;;;;4.22;1.80;;;16.20;99.90;;;;;;5105231;27;20053;-82
2023/09/14 05:18:13;;;;;;;7.53;2.70;;;16.20;99.90;;;;;;5104640;27;20043;-83
2023/09/14 05:20:47;;;;;;;5.22;2.25;;;16.20;99.90;;;;;;5077894;27;20043;-83
2023/09/14 05:23:16;;;;;;;4.20;2.38;;;16.20;99.90;;;;;;5123968;27;20062;-82
2023/09/14 05:25:42;;;;;;;5.53;2.30;;;16.20;99.90;;;;;;5106086;27;20046;-81
2023/09/14 05:28:11;;;;;;;4.53;1.90;;;16.20;99.90;;;;;;5094170;27;20034;-82
2023/09/14 05:30:38;;;;;;;8.75;2.45;;;16.20;99.90;;;;;;5126769;27;20030;-82
2023/09/14 05:33:04;;;;;;;4.72;2.00;;;16.20;99.90;;;;;;5103740;27;20070;-82
2023/09/14 05:35:30;;;;;;;5.53;2.00;;;16.10;99.90;;;;;;5107154;27;20039;-82
2023/09/14 05:37:55;;;;;;;6.25;2.42;;;16.20;99.90;;;;;;5091982;27;20133;-80
2023/09/14 05:40:21;;;;;;;8.52;2.45;;;16.20;99.90;;;;;;5116425;27;20039;-80
2023/09/14 05:42:47;;;;;;;5.90;2.53;;;16.20;99.90;;;;;;5104255;27;20039;-81
2023/09/14 05:45:13;;;;;;;5.57;2.60;;;16.20;99.90;;;;;;5122805;27;20031;-81
2023/09/14 05:47:38;;;;;;;5.30;2.42;;;16.20;99.90;;;;;;5100583;27;20046;-82
2023/09/14 05:50:08;;;;;;;9.65;2.50;;;16.10;99.90;;;;;;5090906;27;20403;-82
2023/09/14 05:52:34;;;;;;;5.25;2.40;;;16.20;99.90;;;;;;5124999;27;20031;-82
2023/09/14 05:55:00;;;;;;;3.53;2.47;;;16.20;99.90;;;;;;5091824;27;20139;-80
2023/09/14 05:57:26;;;;;;;3.45;2.13;;;16.20;99.90;;;;;;5105300;27;20505;-81
2023/09/14 05:59:52;;;;;;;4.53;2.45;;;16.30;99.90;;;;;;5096065;27;20396;-81
2023/09/14 06:02:18;;;;;;;5.07;2.25;;;16.30;99.90;;;;;;5113981;27;20041;-82
2023/09/14 06:04:44;;;;;;;8.43;2.70;;;16.30;99.90;;;;;;5092972;27;20039;-81
2023/09/14 06:07:35;;;;;;;5.15;2.70;;;16.30;99.90;;;;;;5070352;27;20042;-80
2023/09/14 06:10:05;;;;;;;5.18;2.92;;;16.50;99.90;;;;;;5094183;27;20051;-80
2023/09/14 06:12:34;;;;;;;4.80;2.30;;;16.50;99.90;;;;;;5095231;27;20513;-80
2023/09/14 06:15:01;;;;;;;3.40;2.28;;;16.50;99.90;;;;;;5077982;27;20401;-81
2023/09/14 06:17:27;;;;;;;6.13;2.40;;;16.70;99.90;;;;;;5080325;27;20043;-81
2023/09/14 06:19:53;;;;;;;6.65;2.45;;;16.50;99.90;;;;;;5124070;27;20242;-81
2023/09/14 06:22:22;;;;;;;3.90;2.10;;;16.50;99.90;;;;;;5080361;27;20046;-79
2023/09/14 06:24:56;;;;;;;4.05;2.22;;;16.50;99.90;;;;;;5116341;27;20047;-80
2023/09/14 06:27:28;;;;;;;4.65;1.90;;;16.60;99.90;;;;;;5066380;27;20077;-80
2023/09/14 06:29:54;;;;;;;9.60;2.40;;;16.60;99.90;;;;;;5090667;27;20399;-82
2023/09/14 06:32:20;;;;;;;4.65;2.28;;;16.70;99.90;;;;;;5109694;27;20464;-81
2023/09/14 06:34:55;;;;;;;4.50;2.22;;;16.80;99.90;;;;;;5081606;27;20046;-81
2023/09/14 06:37:21;;;;;;;3.67;2.28;;;16.80;99.90;;;;;;5112389;27;20114;-82
2023/09/14 06:39:47;;;;;;;3.28;2.13;;;16.90;99.90;;;;;;5111674;27;20035;-80
2023/09/14 06:42:13;;;;;;;4.10;2.13;;;17.00;99.90;;;;;;5099172;27;20524;-81
2023/09/14 06:44:42;;;;;;;4.28;2.33;;;17.00;99.90;;;;;;5095830;27;20569;-82
2023/09/14 06:47:08;;;;;;;5.55;2.85;;;17.10;99.90;;;;;;5126694;27;20468;-81
2023/09/14 06:49:34;;;;;;;6.15;2.60;;;17.20;99.90;;;;;;5122322;27;20074;-81
2023/09/14 06:52:07;;;;;;;7.05;2.47;;;17.30;99.90;;;;;;5125538;27;20086;-81
2023/09/14 06:54:35;;;;;;;3.80;2.30;;;17.30;99.90;;;;;;5098249;27;20034;-82
2023/09/14 06:57:04;;;;;;;5.70;2.45;;;17.30;99.90;;;;;;5112644;27;20046;-82
2023/09/14 06:59:31;;;;;;;3.58;1.85;;;17.20;99.90;;;;;;5116194;27;20034;-81
2023/09/14 07:02:00;;;;;;;4.75;1.92;;;17.30;99.90;;;;;;5098939;27;20114;-82
2023/09/14 07:04:31;;;;;;;3.15;1.58;;;17.40;99.90;;;;;;5099249;27;20049;-82
2023/09/14 07:07:26;;;;;;;6.15;1.80;;;17.40;99.90;;;;;;5097879;27;20087;-81
2023/09/14 07:09:54;;;;;;;3.10;1.70;;;17.40;99.90;;;;;;5105592;27;20390;-82
2023/09/14 07:12:23;;;;;;;4.75;1.98;;;17.40;99.90;;;;;;5095216;27;20387;-82
2023/09/14 07:14:52;;;;;;;3.53;1.77;;;17.50;99.90;;;;;;5074911;27;20054;-81
2023/09/14 07:17:29;;;;;;;3.53;1.52;;;17.50;99.90;;;;;;5112213;27;20601;-81
2023/09/14 07:19:54;;;;;;;2.40;1.73;;;17.70;99.90;;;;;;5105923;27;20043;-81
2023/09/14 07:22:24;;;;;;;2.50;1.45;;;17.60;99.90;;;;;;5101237;27;20624;-81
2023/09/14 07:24:49;;;;;;;7.72;2.38;;;17.70;99.90;;;;;;5109314;27;20078;-81
2023/09/14 07:27:20;;;;;;;5.43;2.20;;;17.80;99.90;;;;;;5127032;27;20078;-81
2023/09/14 07:29:46;;;;;;;5.68;2.30;;;17.80;99.90;;;;;;5128113;27;20046;-81
2023/09/14 07:32:12;;;;;;;3.53;2.17;;;17.90;99.90;;;;;;5108002;28;20088;-81
2023/09/14 07:35:06;;;;;;;5.40;2.10;;;18.00;99.90;;;;;;5120215;27;20454;-82
2023/09/14 07:38:10;;;;;;;3.30;1.80;;;18.10;99.90;;;;;;5119672;27;20158;-81
2023/09/14 07:40:54;;;;;;;3.03;1.80;;;18.20;99.90;;;;;;5132039;27;20344;-82
2023/09/14 07:43:41;;;;;;;4.60;1.80;;;18.30;99.90;;;;;;5089625;28;20403;-83
2023/09/14 07:46:27;;;;;;;6.90;2.33;;;18.40;99.90;;;;;;5102220;27;20044;-82
2023/09/14 07:49:10;;;;;;;4.03;1.90;;;18.50;99.90;;;;;;5093425;27;20035;-82
2023/09/14 07:52:08;;;;;;;4.43;2.13;;;18.50;99.90;;;;;;5122123;27;20066;-82
2023/09/14 07:55:02;;;;;;;5.38;1.90;;;18.70;99.90;;;;;;5096712;27;20115;-82
2023/09/14 07:58:08;;;;;;;;;;;;;;;;;;;;;
2023/09/14 08:04:48;;;;;;;4.65;1.50;;;18.90;99.90;;;;;;5028539;28;20052;-81
2023/09/14 08:15:35;;;;;;;3.00;1.30;;;19.60;99.90;;;;;;4971496;28;20183;-81
2023/09/14 08:18:29;;;;;;;5.35;2.05;;;19.70;99.90;;;;;;4939348;28;20130;-82
2023/09/14 08:21:11;;;;;;;3.35;1.70;;;19.80;99.90;;;;;;4953476;28;20430;-81
2023/09/14 08:23:40;;;;;;;5.50;2.00;;;19.90;99.90;;;;;;4990995;28;20821;-83
2023/09/14 08:26:06;;;;;;;3.63;1.50;;;20.00;99.90;;;;;;4999709;28;20052;-81
2023/09/14 08:28:32;;;;;;;6.35;1.73;;;20.20;99.90;;;;;;5067908;28;20672;-84
2023/09/14 08:31:00;;;;;;;4.65;1.60;;;20.30;99.90;;;;;;5047862;28;20048;-81
2023/09/14 08:33:26;;;;;;;10.57;1.80;;;20.50;99.90;;;;;;5056089;28;20070;-79
2023/09/14 08:35:58;;;;;;;2.80;1.65;;;20.50;99.90;;;;;;5090217;27;20042;-81
2023/09/14 08:38:25;;;;;;;3.72;1.70;;;20.90;99.90;;;;;;5117271;27;20445;-80
2023/09/14 08:41:00;;;;;;;3.97;1.42;;;21.00;99.90;;;;;;5102393;27;20461;-81
2023/09/14 08:43:33;;;;;;;4.07;1.58;;;21.10;99.90;;;;;;5133392;27;20131;-80
2023/09/14 08:46:01;;;;;;;4.45;1.38;;;21.10;99.90;;;;;;5103817;28;20566;-80
2023/09/14 08:48:31;;;;;;;6.85;1.75;;;21.20;99.90;;;;;;5116981;27;20031;-82
2023/09/14 08:50:59;;;;;;;4.07;1.40;;;21.10;99.90;;;;;;5122711;27;20039;-81
2023/09/14 08:53:36;;;;;;;4.15;1.58;;;21.10;99.90;;;;;;5150738;27;20039;-82
2023/09/14 08:56:03;;;;;;;2.72;1.33;;;21.10;99.90;;;;;;5112262;27;20051;-82
2023/09/14 08:58:29;;;;;;;3.08;1.50;;;21.20;99.90;;;;;;5100870;27;20099;-82
2023/09/14 09:00:56;;;;;;;2.67;1.50;;;21.20;99.90;;;;;;5153143;27;20382;-81
2023/09/14 09:03:22;;;;;;;2.88;1.13;;;21.20;99.90;;;;;;5134493;27;20047;-80
2023/09/14 09:05:49;;;;;;;3.72;1.48;;;21.20;99.90;;;;;;5118627;27;20837;-80
2023/09/14 09:08:17;;;;;;;6.10;2.30;;;21.20;99.90;;;;;;5111253;27;20122;-80
2023/09/14 09:10:43;;;;;;;6.82;1.70;;;21.20;99.90;;;;;;5100937;27;20054;-83
2023/09/14 09:13:09;;;;;;;5.72;1.92;;;21.40;99.90;;;;;;5118354;27;20082;-81
2023/09/14 09:15:38;;;;;;;339.27;37.30;;;21.40;99.90;;;;;;5111218;27;20070;-81
2023/09/14 09:18:11;;;;;;;35.47;5.63;;;21.50;99.90;;;;;;5126178;27;20038;-81
2023/09/14 09:20:45;;;;;;;8.15;2.80;;;21.60;99.90;;;;;;5080833;27;20063;-82
2023/09/14 09:23:19;;;;;;;6.15;1.80;;;21.60;99.90;;;;;;5097920;28;20135;-82
2023/09/14 09:25:51;;;;;;;8.05;1.73;;;21.60;99.90;;;;;;5131057;27;20414;-80
2023/09/14 09:28:17;;;;;;;1999.90;317.00;;;21.70;99.90;;;;;;5115232;27;20115;-80
2023/09/14 09:30:44;;;;;;;92.68;12.35;;;21.70;99.90;;;;;;5097320;27;20707;-80
2023/09/14 09:33:10;;;;;;;18.75;4.15;;;21.90;99.90;;;;;;5095375;28;20051;-80
2023/09/14 09:35:39;;;;;;;7.47;2.47;;;22.00;99.90;;;;;;5099802;27;20095;-81
2023/09/14 09:38:12;;;;;;;5.78;1.67;;;22.10;99.90;;;;;;5094091;28;20043;-81
2023/09/14 09:40:44;;;;;;;4.57;2.05;;;22.20;99.90;;;;;;5114825;27;20042;-82
2023/09/14 09:43:25;;;;;;;3.45;1.50;;;22.30;99.90;;;;;;5121598;27;20038;-82
2023/09/14 09:45:54;;;;;;;5.10;1.90;;;22.60;99.90;;;;;;5110792;27;20039;-82
2023/09/14 09:48:20;;;;;;;4.00;2.00;;;22.40;99.90;;;;;;5094093;28;20039;-83
2023/09/14 09:50:46;;;;;;;4.20;1.63;;;22.80;99.90;;;;;;5106024;27;20030;-82
2023/09/14 09:53:15;;;;;;;4.13;1.55;;;23.20;99.90;;;;;;5110334;27;20042;-81
2023/09/14 09:55:44;;;;;;;5.60;1.55;;;23.50;99.90;;;;;;5103830;27;20062;-84
2023/09/14 09:58:10;;;;;;;4.60;1.65;;;23.40;99.90;;;;;;5116854;27;20053;-82
2023/09/14 10:00:39;;;;;;;3.05;1.40;;;23.60;99.90;;;;;;5084143;28;20039;-82
2023/09/14 10:03:23;;;;;;;7.20;1.88;;;23.50;99.90;;;;;;5098554;27;20055;-82
2023/09/14 10:05:49;;;;;;;3.30;1.50;;;23.60;99.90;;;;;;5136555;27;20038;-82
2023/09/14 10:08:20;;;;;;;3.75;1.63;;;23.70;99.90;;;;;;5119054;27;20031;-80
2023/09/14 10:10:53;;;;;;;5.10;1.65;;;23.70;99.90;;;;;;5104292;27;20056;-81
2023/09/14 10:13:24;;;;;;;6.25;1.77;;;23.40;99.90;;;;;;5133551;27;20038;-83
2023/09/14 10:15:53;;;;;;;2.97;1.23;;;23.50;99.90;;;;;;5134807;27;20125;-81
2023/09/14 10:18:24;;;;;;;2.88;1.65;;;23.70;99.90;;;;;;5094978;27;20047;-80
2023/09/14 10:20:55;;;;;;;4.72;1.83;;;23.70;99.90;;;;;;5102436;27;20450;-80
2023/09/14 10:23:29;;;;;;;4.78;1.67;;;24.00;99.90;;;;;;5109216;27;20129;-80
2023/09/14 10:25:57;;;;;;;6.05;2.08;;;23.60;99.90;;;;;;5150292;27;20478;-80
2023/09/14 10:28:24;;;;;;;6.40;2.20;;;23.80;99.90;;;;;;5144572;27;20033;-82
2023/09/14 10:30:53;;;;;;;3.20;1.50;;;23.80;99.90;;;;;;5103431;28;20093;-81
2023/09/14 10:33:19;;;;;;;2.85;1.52;;;23.90;99.90;;;;;;5109894;27;20043;-82
2023/09/14 10:35:47;;;;;;;3.67;1.58;;;23.70;99.90;;;;;;5113184;27;20035;-80
2023/09/14 10:38:16;;;;;;;5.30;1.73;;;23.80;99.90;;;;;;5129475;27;20121;-81
2023/09/14 10:40:43;;;;;;;5.07;1.58;;;23.90;99.90;;;;;;5112381;27;20042;-82
2023/09/14 10:43:13;;;;;;;3.08;1.30;;;23.90;99.90;;;;;;5123224;27;20035;-81
2023/09/14 10:45:43;;;;;;;4.45;1.75;;;23.50;99.90;;;;;;5096046;27;20097;-81
2023/09/14 10:48:18;;;;;;;4.25;1.80;;;23.60;99.90;;;;;;5118409;27;20039;-81
2023/09/14 10:50:44;;;;;;;3.42;1.60;;;23.80;99.90;;;;;;5124849;27;20070;-81
2023/09/14 10:53:13;;;;;;;3.90;2.03;;;24.10;99.90;;;;;;5118655;27;20052;-82
2023/09/14 10:55:41;;;;;;;7.88;1.88;;;24.40;99.90;;;;;;5120681;27;20440;-82
2023/09/14 10:58:12;;;;;;;5.32;1.60;;;24.50;99.90;;;;;;5107062;27;20128;-83
2023/09/14 11:00:42;;;;;;;5.50;1.83;;;24.70;99.90;;;;;;5112304;27;20609;-82
2023/09/14 11:03:09;;;;;;;3.53;1.40;;;24.70;67.50;;;;;;5112691;27;20074;-82
2023/09/14 11:05:49;;;;;;;4.38;2.05;;;24.30;99.90;;;;;;5090997;28;20059;-82
2023/09/14 11:09:05;;;;;;;3.78;1.88;;;24.00;98.50;;;;;;5109042;28;20130;-82
2023/09/14 11:11:45;;;;;;;5.57;1.90;;;23.90;99.90;;;;;;5101985;28;20039;-83
2023/09/14 11:14:13;;;;;;;3.88;1.65;;;23.70;95.80;;;;;;5115570;27;20509;-83
2023/09/14 11:16:49;;;;;;;4.78;1.52;;;23.60;99.90;;;;;;5096572;28;20119;-83
2023/09/14 11:19:34;;;;;;;2.72;1.50;;;24.00;68.20;;;;;;5123764;27;20047;-82
2023/09/14 11:22:12;;;;;;;4.40;1.92;;;23.70;10.30;;;;;;5122561;27;20129;-83
2023/09/14 11:24:38;;;;;;;3.15;1.67;;;24.00;53.80;;;;;;5125293;27;20073;-84
2023/09/14 11:27:06;;;;;;;2.53;1.45;;;23.80;51.50;;;;;;5105947;27;20058;-84
2023/09/14 11:29:32;;;;;;;5.35;2.08;;;23.70;65.80;;;;;;5092520;28;20091;-85
2023/09/14 11:32:08;;;;;;;5.85;2.13;;;23.80;55.60;;;;;;5093127;28;20404;-83
2023/09/14 11:34:38;;;;;;;4.72;1.73;;;23.60;23.80;;;;;;5121079;27;20431;-83
2023/09/14 11:37:05;;;;;;;2.78;1.60;;;23.40;48.70;;;;;;5142149;27;20086;-84
2023/09/14 11:39:34;;;;;;;4.22;1.48;;;23.40;54.70;;;;;;5119447;28;20365;-83
2023/09/14 11:42:01;;;;;;;5.30;1.80;;;23.20;47.60;;;;;;5093299;28;20426;-83
2023/09/14 11:44:29;;;;;;;3.38;1.50;;;23.40;37.80;;;;;;5109176;28;20071;-83
2023/09/14 11:46:58;;;;;;;4.45;2.08;;;23.40;25.20;;;;;;5085870;28;20095;-81
2023/09/14 11:49:28;;;;;;;3.17;1.67;;;23.30;20.90;;;;;;5099313;28;20739;-84
2023/09/14 11:51:55;;;;;;;8.20;2.65;;;23.60;20.90;;;;;;5092817;28;20039;-82
2023/09/14 11:54:21;;;;;;;5.00;1.73;;;23.50;27.20;;;;;;5092327;28;20047;-83
2023/09/14 11:56:48;;;;;;;4.30;2.10;;;23.40;38.70;;;;;;5127449;27;20031;-82
2023/09/14 11:59:31;;;;;;;4.05;1.77;;;23.20;27.30;;;;;;5098704;28;20056;-83
2023/09/14 12:02:03;;;;;;;4.00;2.17;;;23.00;32.00;;;;;;5093605;27;20069;-82
2023/09/14 12:04:30;;;;;;;5.25;2.00;;;22.60;21.30;;;;;;5121330;28;20040;-82
2023/09/14 12:06:58;;;;;;;6.63;2.22;;;22.70;48.60;;;;;;5127934;28;20109;-86
2023/09/14 12:09:40;;;;;;;4.55;1.90;;;22.60;66.70;;;;;;5104306;28;20169;-83
2023/09/14 12:12:09;;;;;;;4.55;1.88;;;22.60;66.40;;;;;;5092421;28;20047;-83
2023/09/14 12:14:43;;;;;;;4.65;1.88;;;22.70;76.10;;;;;;5109145;27;20055;-82
2023/09/14 12:17:24;;;;;;;6.07;1.92;;;22.90;60.10;;;;;;5092761;28;20146;-82
2023/09/14 12:19:51;;;;;;;4.50;1.73;;;22.90;34.70;;;;;;5089235;28;20038;-67
2023/09/14 12:22:21;;;;;;;4.47;1.73;;;22.80;28.00;;;;;;5111973;27;20039;-68
2023/09/14 12:24:48;;;;;;;4.70;1.95;;;22.80;22.50;;;;;;5121246;27;20043;-67
2023/09/14 12:27:17;;;;;;;4.43;2.20;;;22.80;15.10;;;;;;5148941;27;20039;-81
2023/09/14 12:29:59;;;;;;;7.20;2.33;;;22.80;20.10;;;;;;5101433;28;20039;-81
2023/09/14 12:32:25;;;;;;;6.55;2.60;;;23.00;21.30;;;;;;5092880;28;20067;-82
2023/09/14 12:34:51;;;;;;;21.30;4.20;;;23.10;20.10;;;;;;5075193;28;20039;-84
2023/09/14 12:37:18;;;;;;;6.20;2.28;;;23.30;18.40;;;;;;5071094;28;20035;-82
2023/09/14 12:39:53;;;;;;;6.65;2.13;;;23.20;27.00;;;;;;5088714;28;20559;-83
2023/09/14 12:42:24;;;;;;;;;;;23.20;45.60;;;;;;5113343;27;20031;-83
2023/09/14 12:44:53;;;;;;;6.93;2.55;;;23.30;18.40;;;;;;5095429;28;19923;-84
2023/09/14 12:47:24;;;;;;;3.47;1.92;;;23.20;17.40;;;;;;5125412;27;20034;-82
2023/09/14 12:49:49;;;;;;;7.18;2.17;;;23.00;6.90;;;;;;5097134;27;20463;-83
2023/09/14 12:52:15;;;;;;;4.50;2.08;;;22.90;13.60;;;;;;5081966;27;20122;-82
2023/09/14 12:54:45;;;;;;;3.75;2.15;;;22.90;10.80;;;;;;5147774;27;20085;-83
2023/09/14 12:57:14;;;;;;;11.00;2.30;;;22.90;18.90;;;;;;5135608;27;20042;-83
2023/09/14 13:00:03;;;;;;;4.80;2.33;;;22.80;35.90;;;;;;5123781;27;20743;-82
2023/09/14 13:02:31;;;;;;;5.03;2.25;;;22.70;14.50;;;;;;5098916;27;20050;-82
2023/09/14 13:04:57;;;;;;;12.38;2.83;;;22.80;10.20;;;;;;5095049;28;20375;-82
2023/09/14 13:07:22;;;;;;;4.88;2.03;;;22.80;14.80;;;;;;5078057;28;20118;-82
2023/09/14 13:09:48;;;;;;;5.85;2.15;;;22.60;16.10;;;;;;5094687;27;20104;-78
2023/09/14 13:12:24;;;;;;;7.50;1.98;;;22.60;20.00;;;;;;5071328;28;20445;-78